createdAt,value
2023-12-30T00:01:13.304Z,11.03
2023-12-30T00:04:05.406Z,10.94
2023-12-30T00:06:57.351Z,10.50
2023-12-30T00:09:49.139Z,10.17
2023-12-30T00:12:40.939Z,10.85
2023-12-30T00:15:32.910Z,9.52
2023-12-30T00:18:24.799Z,9.23
2023-12-30T00:21:23.306Z,9.20
2023-12-30T00:24:15.073Z,9.67
2023-12-30T00:27:06.802Z,9.72
2023-12-30T00:29:58.608Z,9.60
2023-12-30T00:32:50.418Z,9.26
2023-12-30T00:35:42.250Z,9.32
2023-12-30T00:38:34.044Z,9.58
2023-12-30T00:41:26.816Z,10.23
2023-12-30T00:44:18.696Z,10.55
2023-12-30T00:47:12.516Z,9.35
2023-12-30T00:50:04.742Z,9.69
2023-12-30T00:52:56.799Z,9.99
2023-12-30T00:55:48.544Z,9.39
2023-12-30T00:58:40.319Z,9.58
2023-12-30T01:01:34.110Z,10.28
2023-12-30T01:04:26.030Z,10.26
2023-12-30T01:07:17.905Z,10.03
2023-12-30T01:10:09.879Z,10.43
2023-12-30T01:13:02.310Z,9.77
2023-12-30T01:15:54.245Z,11.53
2023-12-30T01:18:46.133Z,10.42
2023-12-30T01:21:38.084Z,9.39
2023-12-30T01:24:29.837Z,9.85
2023-12-30T01:27:21.593Z,9.39
2023-12-30T01:30:13.617Z,9.13
2023-12-30T01:33:06.624Z,9.49
2023-12-30T01:35:58.806Z,9.18
2023-12-30T01:38:50.550Z,9.36
2023-12-30T01:41:42.670Z,9.12
2023-12-30T01:44:34.465Z,8.54
2023-12-30T01:47:26.516Z,10.17
2023-12-30T01:50:18.871Z,10.01
2023-12-30T01:53:11.823Z,9.81
2023-12-30T01:56:04.487Z,9.32
2023-12-30T01:58:56.592Z,9.08
2023-12-30T02:01:48.415Z,9.09
2023-12-30T02:04:40.462Z,8.93
2023-12-30T02:07:32.523Z,8.83
2023-12-30T02:10:24.451Z,9.09
2023-12-30T02:13:16.464Z,8.79
2023-12-30T02:16:08.485Z,9.34
2023-12-30T02:19:00.612Z,9.47
2023-12-30T02:21:53.202Z,9.38
2023-12-30T02:24:44.985Z,9.93
2023-12-30T02:27:36.962Z,10.28
2023-12-30T02:30:29.654Z,11.20
2023-12-30T02:33:21.485Z,11.18
2023-12-30T02:36:13.306Z,10.39
2023-12-30T02:39:05.060Z,11.01
2023-12-30T02:41:56.817Z,11.39
2023-12-30T02:44:48.726Z,10.83
2023-12-30T02:47:40.524Z,10.13
2023-12-30T02:50:32.366Z,10.67
2023-12-30T02:53:24.146Z,9.90
2023-12-30T02:56:23.554Z,10.17
2023-12-30T02:59:15.504Z,10.39
2023-12-30T03:02:07.595Z,10.15
2023-12-30T03:04:59.554Z,10.20
2023-12-30T03:07:51.327Z,9.93
2023-12-30T03:10:43.136Z,9.98
2023-12-30T03:13:34.968Z,11.01
2023-12-30T03:16:27.502Z,11.27
2023-12-30T03:19:19.410Z,11.20
2023-12-30T03:22:11.265Z,13.69
2023-12-30T03:25:04.522Z,12.39
2023-12-30T03:27:56.347Z,12.38
2023-12-30T03:30:48.122Z,13.20
2023-12-30T03:33:40.024Z,13.37
2023-12-30T03:36:31.870Z,14.78
2023-12-30T03:39:24.380Z,13.99
2023-12-30T03:42:16.112Z,14.16
2023-12-30T03:45:08.584Z,13.83
2023-12-30T03:48:01.429Z,12.88
2023-12-30T03:50:53.388Z,14.08
2023-12-30T03:53:45.198Z,13.80
2023-12-30T03:56:41.229Z,13.04
2023-12-30T03:59:33.016Z,13.06
2023-12-30T04:02:24.851Z,12.66
2023-12-30T04:05:16.793Z,11.74
2023-12-30T04:08:08.569Z,12.03
2023-12-30T04:11:00.703Z,12.51
2023-12-30T04:13:52.614Z,12.62
2023-12-30T04:16:44.505Z,12.26
2023-12-30T04:19:37.124Z,12.62
2023-12-30T04:22:29.170Z,12.81
2023-12-30T04:25:21.056Z,12.69
2023-12-30T04:28:12.952Z,13.31
2023-12-30T04:31:05.064Z,12.85
2023-12-30T04:33:57.003Z,12.71
2023-12-30T04:36:48.979Z,12.71
2023-12-30T04:39:40.789Z,13.00
2023-12-30T04:42:32.539Z,11.88
2023-12-30T04:45:24.360Z,10.98
2023-12-30T04:48:16.233Z,11.57
2023-12-30T04:51:08.079Z,12.26
2023-12-30T04:54:00.293Z,13.24
2023-12-30T04:56:53.226Z,13.66
2023-12-30T04:59:45.218Z,14.42
2023-12-30T05:02:37.267Z,16.47
2023-12-30T05:05:30.272Z,17.20
2023-12-30T05:08:22.085Z,16.10
2023-12-30T05:11:13.833Z,15.54
2023-12-30T05:14:05.669Z,14.36
2023-12-30T05:16:57.442Z,14.39
2023-12-30T05:19:49.222Z,13.46
2023-12-30T05:22:41.289Z,14.56
2023-12-30T05:25:33.170Z,15.77
2023-12-30T05:28:25.039Z,16.76
2023-12-30T05:31:16.866Z,15.21
2023-12-30T05:34:08.835Z,15.13
2023-12-30T05:37:00.676Z,14.06
2023-12-30T05:39:52.461Z,14.43
2023-12-30T05:42:44.254Z,14.37
2023-12-30T05:45:36.274Z,12.35
2023-12-30T05:48:28.046Z,13.50
2023-12-30T05:51:21.785Z,15.68
2023-12-30T05:54:14.949Z,18.77
2023-12-30T05:57:06.762Z,16.50
2023-12-30T05:59:58.632Z,17.96
2023-12-30T06:02:50.411Z,17.06
2023-12-30T06:05:42.223Z,15.24
2023-12-30T06:08:34.000Z,14.74
2023-12-30T06:11:25.791Z,15.37
2023-12-30T06:14:17.614Z,15.66
2023-12-30T06:17:09.373Z,14.71
2023-12-30T06:20:01.808Z,15.66
2023-12-30T06:22:53.666Z,14.05
2023-12-30T06:25:45.493Z,12.72
2023-12-30T06:28:37.350Z,12.26
2023-12-30T06:31:29.218Z,10.57
2023-12-30T06:34:21.123Z,10.45
2023-12-30T06:37:13.029Z,13.37
2023-12-30T06:40:05.503Z,15.97
2023-12-30T06:42:57.323Z,15.38
2023-12-30T06:45:49.133Z,17.55
2023-12-30T06:48:41.092Z,16.17
2023-12-30T06:51:32.878Z,15.59
2023-12-30T06:54:24.620Z,15.23
2023-12-30T06:57:16.366Z,13.39
2023-12-30T07:00:08.918Z,14.01
2023-12-30T07:03:00.766Z,14.59
2023-12-30T07:05:52.547Z,14.31
2023-12-30T07:08:44.497Z,14.90
2023-12-30T07:11:36.363Z,14.97
2023-12-30T07:14:28.070Z,15.18
2023-12-30T07:17:19.817Z,16.99
2023-12-30T07:20:11.768Z,16.59
2023-12-30T07:23:04.137Z,16.20
2023-12-30T07:25:56.064Z,15.51
2023-12-30T07:28:47.860Z,14.66
2023-12-30T07:31:40.704Z,16.32
2023-12-30T07:34:32.538Z,18.36
2023-12-30T07:37:24.348Z,18.31
2023-12-30T07:40:17.047Z,16.21
2023-12-30T07:43:08.884Z,17.24
2023-12-30T07:46:00.948Z,17.99
2023-12-30T07:48:52.830Z,17.66
2023-12-30T07:51:44.854Z,16.71
2023-12-30T07:54:36.711Z,16.88
2023-12-30T07:57:28.522Z,17.49
2023-12-30T08:00:20.397Z,17.64
2023-12-30T08:03:12.245Z,19.06
2023-12-30T08:06:04.357Z,18.18
2023-12-30T08:08:56.155Z,18.18
2023-12-30T08:11:58.188Z,19.63
2023-12-30T08:14:53.845Z,18.72
2023-12-30T08:17:45.855Z,18.66
2023-12-30T08:20:37.728Z,19.63
2023-12-30T08:23:29.542Z,19.20
2023-12-30T08:26:21.818Z,19.15
2023-12-30T08:29:15.528Z,19.50
2023-12-30T08:32:07.418Z,18.36
2023-12-30T08:34:59.287Z,17.99
2023-12-30T08:37:51.132Z,17.41
2023-12-30T08:40:43.678Z,17.71
2023-12-30T08:43:35.571Z,17.18
2023-12-30T08:46:27.496Z,15.83
2023-12-30T08:49:19.459Z,16.02
2023-12-30T08:52:11.323Z,15.17
2023-12-30T08:55:03.235Z,15.35
2023-12-30T08:57:55.080Z,14.63
2023-12-30T09:00:46.988Z,13.61
2023-12-30T09:03:39.332Z,12.82
2023-12-30T09:06:31.279Z,12.19
2023-12-30T09:09:23.086Z,12.33
2023-12-30T09:12:14.857Z,12.16
2023-12-30T09:15:06.961Z,12.13
2023-12-30T09:17:58.900Z,12.55
2023-12-30T09:20:50.771Z,12.67
2023-12-30T09:23:42.836Z,12.78
2023-12-30T09:26:34.743Z,12.39
2023-12-30T09:29:26.713Z,12.74
2023-12-30T09:32:18.662Z,12.58
2023-12-30T09:35:10.671Z,12.57
2023-12-30T09:38:02.679Z,12.82
2023-12-30T09:40:55.965Z,12.28
2023-12-30T09:43:49.104Z,11.57
2023-12-30T09:46:41.467Z,11.52
2023-12-30T09:49:36.172Z,11.46
2023-12-30T09:52:28.369Z,11.07
2023-12-30T09:55:20.241Z,10.92
2023-12-30T09:58:12.670Z,10.95
2023-12-30T10:01:04.739Z,11.07
2023-12-30T10:03:56.901Z,11.31
2023-12-30T10:06:50.719Z,10.61
2023-12-30T10:09:42.858Z,10.88
2023-12-30T10:12:34.632Z,11.25
2023-12-30T10:15:26.383Z,10.70
2023-12-30T10:18:18.288Z,10.73
2023-12-30T10:21:10.172Z,11.59
2023-12-30T10:24:02.459Z,11.31
2023-12-30T10:26:54.247Z,11.26
2023-12-30T10:29:59.499Z,11.33
2023-12-30T10:32:52.202Z,10.96
2023-12-30T10:35:44.749Z,11.05
2023-12-30T10:38:37.208Z,11.10
2023-12-30T10:41:29.001Z,10.78
2023-12-30T10:44:20.903Z,10.84
2023-12-30T10:47:15.959Z,11.11
2023-12-30T10:50:09.946Z,11.65
2023-12-30T10:53:06.848Z,11.25
2023-12-30T10:56:01.145Z,11.24
2023-12-30T10:58:55.714Z,11.55
2023-12-30T11:01:48.438Z,11.41
2023-12-30T11:04:40.728Z,11.15
2023-12-30T11:07:33.335Z,11.99
2023-12-30T11:10:27.013Z,11.42
2023-12-30T11:13:21.677Z,11.41
2023-12-30T11:16:15.435Z,11.99
2023-12-30T11:19:07.532Z,11.22
2023-12-30T11:22:06.402Z,12.02
2023-12-30T11:24:58.222Z,12.12
2023-12-30T11:27:53.224Z,11.75
2023-12-30T11:30:47.273Z,11.83
2023-12-30T11:33:39.228Z,11.75
2023-12-30T11:36:31.979Z,11.12
2023-12-30T11:39:31.865Z,10.73
2023-12-30T11:42:33.825Z,11.89
2023-12-30T11:45:34.227Z,12.44
2023-12-30T11:48:26.071Z,12.81
2023-12-30T11:51:22.120Z,13.00
2023-12-30T11:54:13.897Z,12.25
2023-12-30T11:57:08.749Z,12.16
2023-12-30T12:00:00.595Z,12.19
2023-12-30T12:02:52.452Z,12.43
2023-12-30T12:05:44.250Z,12.13
2023-12-30T12:08:36.100Z,12.91
2023-12-30T12:11:27.901Z,12.58
2023-12-30T12:14:19.624Z,11.74
2023-12-30T12:17:11.505Z,12.84
2023-12-30T12:20:04.608Z,12.80
2023-12-30T12:22:56.819Z,12.89
2023-12-30T12:25:48.764Z,12.82
2023-12-30T12:28:40.871Z,12.18
2023-12-30T12:31:32.836Z,11.64
2023-12-30T12:34:26.343Z,12.28
2023-12-30T12:37:19.260Z,12.30
2023-12-30T12:40:11.662Z,12.46
2023-12-30T12:43:03.833Z,12.19
2023-12-30T12:45:55.963Z,12.28
2023-12-30T12:48:47.903Z,11.77
2023-12-30T12:51:39.739Z,12.39
2023-12-30T12:54:31.508Z,11.75
2023-12-30T12:57:23.251Z,10.86
2023-12-30T13:00:15.715Z,11.88
2023-12-30T13:03:08.061Z,12.25
2023-12-30T13:06:00.106Z,11.96
2023-12-30T13:08:51.865Z,11.30
2023-12-30T13:11:43.642Z,12.33
2023-12-30T13:14:35.477Z,11.73
2023-12-30T13:17:27.434Z,10.94
2023-12-30T13:20:19.344Z,10.83
2023-12-30T13:23:11.107Z,12.08
2023-12-30T13:26:04.761Z,11.69
2023-12-30T13:28:56.881Z,11.85
2023-12-30T13:31:48.760Z,12.91
2023-12-30T13:34:40.805Z,12.40
2023-12-30T13:37:32.642Z,12.37
2023-12-30T13:40:24.661Z,12.70
2023-12-30T13:43:16.443Z,11.95
2023-12-30T13:46:08.230Z,11.94
2023-12-30T13:49:00.237Z,12.39
2023-12-30T13:51:52.104Z,12.19
2023-12-30T13:54:43.854Z,13.60
2023-12-30T13:57:35.607Z,12.44
2023-12-30T14:00:27.422Z,12.37
2023-12-30T14:03:19.294Z,12.62
2023-12-30T14:06:11.306Z,12.16
2023-12-30T14:09:03.221Z,11.22
2023-12-30T14:11:56.629Z,11.34
2023-12-30T14:14:48.748Z,10.63
2023-12-30T14:17:41.005Z,10.87
2023-12-30T14:20:32.811Z,10.59
2023-12-30T14:23:24.557Z,11.97
2023-12-30T14:26:16.337Z,11.76
2023-12-30T14:29:08.085Z,12.05
2023-12-30T14:31:59.870Z,12.29
2023-12-30T14:34:51.712Z,11.92
2023-12-30T14:37:43.679Z,11.91
2023-12-30T14:40:35.636Z,12.10
2023-12-30T14:43:27.567Z,12.02
2023-12-30T14:46:19.535Z,12.04
2023-12-30T14:49:11.430Z,11.96
2023-12-30T14:52:03.422Z,12.71
2023-12-30T14:55:01.858Z,12.41
2023-12-30T14:57:54.502Z,12.17
2023-12-30T15:00:47.440Z,12.06
2023-12-30T15:03:39.428Z,12.00
2023-12-30T15:06:31.282Z,12.63
2023-12-30T15:09:23.326Z,12.31
2023-12-30T15:12:15.114Z,11.30
2023-12-30T15:15:07.008Z,11.23
2023-12-30T15:17:58.998Z,11.34
2023-12-30T15:20:51.015Z,11.82
2023-12-30T15:23:43.042Z,11.78
2023-12-30T15:26:34.812Z,12.15
2023-12-30T15:29:26.665Z,12.07
2023-12-30T15:32:18.846Z,12.35
2023-12-30T15:35:10.985Z,12.90
2023-12-30T15:38:02.972Z,12.89
2023-12-30T15:40:54.827Z,13.73
2023-12-30T15:43:46.762Z,13.20
2023-12-30T15:46:38.597Z,13.84
2023-12-30T15:49:30.459Z,13.39
2023-12-30T15:52:22.531Z,13.45
2023-12-30T15:55:14.465Z,12.96
2023-12-30T15:58:06.273Z,13.72
2023-12-30T16:00:58.085Z,13.18
2023-12-30T16:03:49.854Z,12.66
2023-12-30T16:06:41.752Z,13.63
2023-12-30T16:09:34.002Z,13.22
2023-12-30T16:12:25.763Z,14.58
2023-12-30T16:15:17.573Z,14.74
2023-12-30T16:18:09.656Z,13.81
2023-12-30T16:21:01.532Z,13.40
2023-12-30T16:23:53.299Z,13.54
2023-12-30T16:26:45.325Z,12.99
2023-12-30T16:29:37.055Z,13.35
2023-12-30T16:32:28.969Z,13.51
2023-12-30T16:35:20.911Z,14.08
2023-12-30T16:38:12.747Z,14.21
2023-12-30T16:41:04.682Z,13.78
2023-12-30T16:43:56.458Z,13.53
2023-12-30T16:46:48.408Z,13.96
2023-12-30T16:49:40.220Z,15.86
2023-12-30T16:52:32.278Z,16.98
2023-12-30T16:55:24.102Z,21.00
2023-12-30T16:58:15.906Z,28.41
2023-12-30T17:01:07.760Z,31.10
2023-12-30T17:03:59.667Z,25.18
2023-12-30T17:06:51.790Z,22.28
2023-12-30T17:09:44.038Z,19.86
2023-12-30T17:12:35.889Z,17.83
2023-12-30T17:15:27.631Z,15.88
2023-12-30T17:18:19.490Z,16.25
2023-12-30T17:21:11.240Z,16.33
2023-12-30T17:24:04.047Z,17.67
2023-12-30T17:26:55.858Z,17.68
2023-12-30T17:29:47.682Z,17.59
2023-12-30T17:32:39.493Z,19.56
2023-12-30T17:35:31.294Z,20.29
2023-12-30T17:38:23.122Z,21.53
2023-12-30T17:41:14.932Z,22.24
2023-12-30T17:44:06.794Z,20.26
2023-12-30T17:46:58.608Z,20.20
2023-12-30T17:49:50.458Z,21.85
2023-12-30T17:52:42.259Z,22.69
2023-12-30T17:55:34.088Z,24.67
2023-12-30T17:58:25.923Z,24.08
2023-12-30T18:01:19.139Z,22.00
2023-12-30T18:04:11.016Z,21.87
2023-12-30T18:07:03.281Z,24.68
2023-12-30T18:09:55.096Z,22.42
2023-12-30T18:12:46.878Z,21.10
2023-12-30T18:15:38.617Z,19.88
2023-12-30T18:18:30.528Z,19.28
2023-12-30T18:21:22.462Z,19.77
2023-12-30T18:24:14.213Z,20.84
2023-12-30T18:27:06.021Z,18.82
2023-12-30T18:29:57.787Z,19.20
2023-12-30T18:32:49.946Z,18.60
2023-12-30T18:35:41.855Z,17.72
2023-12-30T18:38:34.188Z,17.35
2023-12-30T18:41:25.974Z,16.25
2023-12-30T18:44:17.774Z,16.73
2023-12-30T18:47:09.530Z,16.49
2023-12-30T18:50:01.344Z,16.68
2023-12-30T18:52:53.191Z,16.78
2023-12-30T18:55:45.075Z,16.90
2023-12-30T18:58:36.875Z,15.78
2023-12-30T19:01:28.758Z,16.13
2023-12-30T19:04:20.620Z,16.99
2023-12-30T19:07:12.466Z,18.72
2023-12-30T19:10:04.634Z,16.19
2023-12-30T19:12:57.035Z,17.02
2023-12-30T19:15:48.938Z,18.44
2023-12-30T19:18:40.837Z,17.52
2023-12-30T19:21:32.649Z,16.44
2023-12-30T19:24:24.414Z,15.94
2023-12-30T19:27:17.183Z,17.07
2023-12-30T19:30:09.342Z,20.55
2023-12-30T19:33:01.409Z,23.48
2023-12-30T19:35:53.676Z,24.77
2023-12-30T19:38:45.826Z,28.83
2023-12-30T19:41:38.529Z,22.57
2023-12-30T19:44:30.512Z,20.81
2023-12-30T19:47:22.372Z,18.94
2023-12-30T19:50:14.103Z,19.07
2023-12-30T19:53:05.978Z,19.26
2023-12-30T19:55:58.294Z,20.80
2023-12-30T19:58:51.307Z,20.50
2023-12-30T20:01:43.153Z,20.18
2023-12-30T20:04:39.369Z,18.62
2023-12-30T20:07:31.195Z,18.41
2023-12-30T20:10:23.067Z,18.73
2023-12-30T20:13:15.189Z,19.19
2023-12-30T20:16:10.307Z,17.27
2023-12-30T20:19:02.167Z,16.85
2023-12-30T20:21:53.990Z,17.34
2023-12-30T20:24:45.784Z,20.08
2023-12-30T20:27:37.640Z,19.93
2023-12-30T20:30:29.380Z,18.77
2023-12-30T20:33:21.241Z,18.74
2023-12-30T20:36:22.234Z,17.87
2023-12-30T20:39:13.982Z,16.27
2023-12-30T20:42:06.086Z,16.96
2023-12-30T20:44:57.814Z,16.63
2023-12-30T20:47:49.736Z,17.51
2023-12-30T20:50:41.566Z,17.11
2023-12-30T20:53:33.313Z,17.48
2023-12-30T20:56:25.102Z,17.16
2023-12-30T20:59:18.585Z,16.92
2023-12-30T21:02:10.398Z,16.99
2023-12-30T21:05:02.178Z,15.96
2023-12-30T21:07:53.989Z,17.11
2023-12-30T21:10:45.937Z,18.14
2023-12-30T21:13:37.730Z,17.83
2023-12-30T21:16:30.094Z,18.81
2023-12-30T21:19:21.875Z,17.66
2023-12-30T21:22:13.677Z,19.05
2023-12-30T21:25:15.471Z,16.92
2023-12-30T21:28:11.230Z,18.54
2023-12-30T21:31:05.015Z,19.03
2023-12-30T21:33:56.938Z,17.93
2023-12-30T21:36:48.793Z,17.75
2023-12-30T21:39:40.797Z,18.42
2023-12-30T21:42:32.587Z,17.71
2023-12-30T21:45:24.407Z,17.19
2023-12-30T21:48:16.264Z,17.30
2023-12-30T21:51:08.889Z,16.69
2023-12-30T21:54:00.737Z,16.24
2023-12-30T21:56:52.527Z,17.48
2023-12-30T21:59:44.251Z,16.67
2023-12-30T22:02:36.054Z,16.12
2023-12-30T22:05:28.700Z,15.66
2023-12-30T22:08:20.518Z,16.01
2023-12-30T22:11:12.254Z,15.96
2023-12-30T22:14:04.019Z,16.30
2023-12-30T22:16:55.762Z,17.22
2023-12-30T22:19:47.631Z,16.96
2023-12-30T22:22:39.541Z,16.62
2023-12-30T22:25:31.336Z,17.17
2023-12-30T22:28:23.160Z,16.59
2023-12-30T22:31:15.001Z,16.81
2023-12-30T22:34:06.872Z,16.64
2023-12-30T22:36:58.693Z,17.47
2023-12-30T22:39:50.529Z,17.41
2023-12-30T22:42:42.523Z,16.95
2023-12-30T22:45:34.342Z,16.38
2023-12-30T22:48:26.207Z,16.90
2023-12-30T22:51:17.969Z,16.32
2023-12-30T22:54:09.757Z,15.88
2023-12-30T22:57:01.502Z,16.77
2023-12-30T22:59:53.246Z,17.30
2023-12-30T23:02:44.977Z,16.34
2023-12-30T23:05:37.245Z,16.39
2023-12-30T23:08:28.999Z,16.82
2023-12-30T23:11:20.722Z,17.13
2023-12-30T23:14:12.466Z,17.48
2023-12-30T23:17:04.611Z,16.88
2023-12-30T23:19:56.378Z,15.88
2023-12-30T23:22:48.646Z,16.32
2023-12-30T23:25:40.495Z,15.94
2023-12-30T23:28:32.309Z,15.68
2023-12-30T23:31:24.345Z,16.44
2023-12-30T23:34:16.138Z,15.72
2023-12-30T23:37:08.119Z,15.32
2023-12-30T23:39:59.945Z,15.54
2023-12-30T23:42:51.756Z,15.85
2023-12-30T23:45:43.541Z,15.70
2023-12-30T23:48:35.329Z,16.19
2023-12-30T23:51:27.120Z,16.43
2023-12-30T23:54:18.890Z,16.42
2023-12-30T23:57:10.739Z,16.00
